Time;durP1;ratioP1;P1;durP2;ratioP2;P2;SDS_P1;SDS_P2;PMS_P1;PMS_P2;Temp;Humidity;BMP_temperature;BMP_pressure;BME280_temperature;BME280_humidity;BME280_pressure;Samples;Min_cycle;Max_cycle;Signal;HPM_P1;HPM_P2
2022/03/21 00:22:05;;;;;;;;;;;17.80;33.20;;;;;;5111023;27;20377;-86
2022/03/21 00:24:31;;;;;;;;;;;7.10;38.00;;;;;;5110983;28;20006;-86
2022/03/21 00:26:56;;;;;;;;;;;7.10;37.30;;;;;;5110936;28;20018;-86
2022/03/21 00:30:43;;;;;;;;;;;7.10;37.50;;;;;;5110912;27;20285;-86
2022/03/21 00:33:09;;;;;;;;;;;7.00;37.60;;;;;;5111298;28;19912;-86
2022/03/21 00:35:35;;;;;;;;;;;7.00;37.60;;;;;;5110906;28;20418;-86
2022/03/21 00:38:01;;;;;;;;;;;7.00;37.80;;;;;;5110960;28;19908;-86
2022/03/21 00:40:29;;;;;;;;;;;6.90;38.30;;;;;;5110614;28;19912;-86
2022/03/21 00:42:58;;;;;;;;;;;6.80;38.50;;;;;;5110633;28;20316;-86
2022/03/21 00:45:24;;;;;;;;;;;6.70;38.80;;;;;;5110788;28;20003;-86
2022/03/21 00:47:50;;;;;;;;;;;6.70;38.60;;;;;;5110745;28;19963;-86
2022/03/21 00:50:16;;;;;;;;;;;6.70;39.10;;;;;;5110298;28;19938;-86
2022/03/21 00:52:43;;;;;;;;;;;6.70;38.80;;;;;;5110855;28;19970;-86
2022/03/21 00:55:09;;;;;;;;;;;6.70;38.70;;;;;;5110819;28;19908;-86
2022/03/21 00:57:35;;;;;;;;;;;6.70;38.60;;;;;;5110505;28;19912;-87
2022/03/21 01:00:03;;;;;;;;;;;6.70;38.30;;;;;;5110281;28;19988;-86
2022/03/21 01:02:29;;;;;;;;;;;6.70;38.60;;;;;;5110371;28;19915;-86
2022/03/21 01:05:16;;;;;;;;;;;6.70;38.80;;;;;;5111054;27;20391;-86
2022/03/21 01:07:42;;;;;;;;;;;6.70;38.90;;;;;;5110999;28;20003;-86
2022/03/21 01:10:09;;;;;;;;;;;6.60;40.00;;;;;;5095326;28;20427;-86
2022/03/21 01:12:35;;;;;;;;;;;6.60;39.10;;;;;;5090506;28;19915;-86
2022/03/21 01:15:01;;;;;;;;;;;6.60;39.70;;;;;;5090510;28;19908;-86
2022/03/21 01:17:26;;;;;;;;;;;6.60;39.10;;;;;;5090493;28;20062;-86
2022/03/21 01:19:52;;;;;;;;;;;6.60;39.30;;;;;;5089925;28;19944;-86
2022/03/21 01:22:17;;;;;;;;;;;6.70;39.10;;;;;;5090430;28;19909;-86
2022/03/21 01:24:43;;;;;;;;;;;6.70;39.60;;;;;;5090297;28;19959;-87
2022/03/21 01:27:09;;;;;;;;;;;6.60;39.40;;;;;;5090272;28;19908;-86
2022/03/21 01:30:31;;;;;;;;;;;6.70;39.00;;;;;;5110700;27;19916;-86
2022/03/21 01:32:57;;;;;;;;;;;6.70;39.00;;;;;;5111027;28;19998;-86
2022/03/21 01:36:50;;;;;;;;;;;6.50;39.10;;;;;;5131644;27;19912;-87
2022/03/21 01:39:15;;;;;;;;;;;6.20;40.10;;;;;;5131323;27;20389;-87
2022/03/21 01:41:41;;;;;;;;;;;6.00;40.70;;;;;;5132053;27;19908;-87
2022/03/21 01:44:08;;;;;;;;;;;5.90;40.70;;;;;;5131469;27;20345;-87
2022/03/21 01:46:34;;;;;;;;;;;5.80;40.60;;;;;;5131439;27;19968;-87
2022/03/21 01:49:00;;;;;;;;;;;5.80;40.40;;;;;;5130937;27;20373;-87
2022/03/21 01:51:26;;;;;;;;;;;5.70;40.60;;;;;;5130908;27;19999;-88
2022/03/21 01:56:37;;;;;;;;;;;5.70;40.20;;;;;;5131090;28;19918;-87
2022/03/21 01:59:03;;;;;;;;;;;5.70;40.10;;;;;;5130834;27;19911;-87
2022/03/21 02:01:29;;;;;;;;;;;5.70;39.60;;;;;;5131104;27;19999;-87
2022/03/21 02:03:54;;;;;;;;;;;5.70;40.20;;;;;;5131016;27;20365;-86
2022/03/21 02:07:36;;;;;;;;;;;5.70;40.80;;;;;;5111061;27;20284;-86
2022/03/21 02:10:02;;;;;;;;;;;5.70;41.30;;;;;;5110343;28;20365;-86
2022/03/21 02:12:29;;;;;;;;;;;5.40;40.50;;;;;;5111274;28;19962;-86
2022/03/21 02:14:54;;;;;;;;;;;5.20;40.70;;;;;;5110926;28;19943;-86
2022/03/21 02:17:21;;;;;;;;;;;5.20;41.30;;;;;;5107843;28;19912;-86
2022/03/21 02:19:47;;;;;;;;;;;5.20;40.70;;;;;;5110841;28;19908;-86
2022/03/21 02:22:12;;;;;;;;;;;5.20;40.80;;;;;;5110793;28;20312;-86
2022/03/21 02:24:49;;;;;;;;;;;5.30;41.00;;;;;;5110727;28;19915;-86
2022/03/21 02:27:16;;;;;;;;;;;5.40;42.00;;;;;;5095505;28;19927;-86
2022/03/21 02:29:42;;;;;;;;;;;5.50;40.60;;;;;;5090252;28;19944;-86
2022/03/21 02:32:08;;;;;;;;;;;5.50;40.10;;;;;;5088987;28;19940;-86
2022/03/21 02:34:36;;;;;;;;;;;5.70;40.60;;;;;;5090209;28;20385;-86
2022/03/21 02:37:02;;;;;;;;;;;5.70;41.40;;;;;;5102735;28;20427;-86
2022/03/21 02:39:28;;;;;;;;;;;5.70;41.40;;;;;;5110395;28;19908;-86
2022/03/21 02:41:54;;;;;;;;;;;5.60;42.30;;;;;;5110386;28;20279;-86
2022/03/21 02:44:20;;;;;;;;;;;5.60;42.90;;;;;;5110356;28;20018;-86
2022/03/21 02:46:46;;;;;;;;;;;5.20;43.00;;;;;;5099755;28;19920;-86
2022/03/21 02:49:12;;;;;;;;;;;4.90;43.50;;;;;;5089911;28;20400;-86
2022/03/21 02:51:39;;;;;;;;;;;4.80;42.60;;;;;;5089894;28;19908;-86
2022/03/21 02:55:20;;;;;;;;;;;4.60;42.60;;;;;;5111056;27;19912;-86
2022/03/21 02:57:46;;;;;;;;;;;4.70;42.80;;;;;;5110695;28;19918;-86
2022/03/21 03:00:12;;;;;;;;;;;4.80;42.30;;;;;;5109899;28;19995;-86
2022/03/21 03:02:38;;;;;;;;;;;4.90;42.00;;;;;;5110884;28;19908;-86
2022/03/21 03:05:03;;;;;;;;;;;5.00;43.00;;;;;;5110854;28;19957;-86
2022/03/21 03:07:29;;;;;;;;;;;5.10;44.20;;;;;;5110489;28;20255;-86
2022/03/21 03:09:54;;;;;;;;;;;5.10;44.20;;;;;;5096949;28;19973;-86
2022/03/21 03:12:20;;;;;;;;;;;5.20;43.00;;;;;;5090409;28;19908;-86
2022/03/21 03:14:46;;;;;;;;;;;5.30;43.10;;;;;;5090198;28;19920;-86
2022/03/21 03:17:12;;;;;;;;;;;5.30;42.80;;;;;;5089977;28;20327;-86
2022/03/21 03:19:37;;;;;;;;;;;5.30;42.90;;;;;;5090238;28;19908;-86
2022/03/21 03:22:03;;;;;;;;;;;5.30;42.70;;;;;;5090200;28;19916;-86
2022/03/21 03:24:29;;;;;;;;;;;5.00;43.10;;;;;;5090424;28;19916;-86
2022/03/21 03:26:55;;;;;;;;;;;4.70;43.10;;;;;;5089897;28;19912;-86
2022/03/21 03:29:20;;;;;;;;;;;4.70;43.60;;;;;;5090330;28;20302;-86
2022/03/21 03:31:46;;;;;;;;;;;4.60;44.60;;;;;;5089972;28;20385;-86
2022/03/21 03:34:11;;;;;;;;;;;4.50;46.90;;;;;;5089927;28;19916;-86
2022/03/21 03:36:38;;;;;;;;;;;4.30;46.80;;;;;;5089662;28;20388;-86
2022/03/21 03:39:04;;;;;;;;;;;4.20;47.70;;;;;;5089849;28;19909;-86
2022/03/21 03:41:30;;;;;;;;;;;4.20;46.60;;;;;;5089814;28;19939;-86
2022/03/21 03:43:56;;;;;;;;;;;4.30;47.80;;;;;;5089790;28;19908;-86
2022/03/21 03:46:21;;;;;;;;;;;4.30;46.10;;;;;;5089462;28;19982;-86
2022/03/21 03:48:47;;;;;;;;;;;4.40;47.50;;;;;;5089423;28;20011;-86
2022/03/21 03:51:13;;;;;;;;;;;4.40;49.60;;;;;;5089232;28;19908;-86
2022/03/21 03:53:39;;;;;;;;;;;4.40;48.00;;;;;;5088630;28;20023;-86
2022/03/21 03:56:06;;;;;;;;;;;4.20;48.30;;;;;;5089248;28;20257;-86
2022/03/21 03:58:32;;;;;;;;;;;4.20;49.60;;;;;;5089247;28;19917;-86
2022/03/21 04:00:58;;;;;;;;;;;4.20;49.90;;;;;;5088838;28;20003;-86
2022/03/21 04:06:08;;;;;;;;;;;4.00;49.30;;;;;;5078620;28;19920;-86
2022/03/21 04:08:33;;;;;;;;;;;3.80;51.10;;;;;;5075410;28;19909;-86
2022/03/21 04:10:59;;;;;;;;;;;3.50;51.20;;;;;;5075715;28;19916;-86
2022/03/21 04:13:24;;;;;;;;;;;3.50;52.20;;;;;;5075386;28;19943;-86
2022/03/21 04:15:50;;;;;;;;;;;3.50;54.50;;;;;;5075353;28;19957;-86
2022/03/21 04:18:15;;;;;;;;;;;3.50;52.40;;;;;;5075669;28;20300;-85
2022/03/21 04:20:41;;;;;;;;;;;3.40;52.20;;;;;;5075821;28;19909;-86
2022/03/21 04:23:07;;;;;;;;;;;3.20;52.40;;;;;;5074222;28;20426;-86
2022/03/21 04:25:33;;;;;;;;;;;3.00;53.30;;;;;;5073829;28;19913;-86
2022/03/21 04:27:59;;;;;;;;;;;2.80;52.50;;;;;;5075040;28;19918;-86
2022/03/21 04:30:24;;;;;;;;;;;2.70;52.60;;;;;;5075267;28;20286;-86
2022/03/21 04:32:50;;;;;;;;;;;2.70;53.30;;;;;;5075264;28;19999;-86
2022/03/21 04:35:16;;;;;;;;;;;2.70;53.90;;;;;;5075256;28;19920;-86
2022/03/21 04:37:42;;;;;;;;;;;2.70;54.40;;;;;;5075042;28;19923;-86
2022/03/21 04:40:08;;;;;;;;;;;2.90;55.40;;;;;;5075245;28;19916;-86
2022/03/21 04:42:34;;;;;;;;;;;3.00;53.20;;;;;;5075194;28;19908;-86
2022/03/21 04:44:59;;;;;;;;;;;2.90;52.80;;;;;;5075168;28;19931;-86
2022/03/21 04:47:25;;;;;;;;;;;3.00;54.30;;;;;;5074762;28;20366;-86
2022/03/21 04:49:50;;;;;;;;;;;3.00;54.90;;;;;;5075045;28;19908;-86
2022/03/21 04:52:16;;;;;;;;;;;2.90;54.80;;;;;;5075031;28;19955;-85
2022/03/21 04:54:42;;;;;;;;;;;2.80;53.90;;;;;;5074749;28;19978;-86
2022/03/21 04:57:08;;;;;;;;;;;2.50;53.90;;;;;;5074666;28;19913;-85
2022/03/21 04:59:34;;;;;;;;;;;2.50;54.90;;;;;;5074865;28;19974;-85
2022/03/21 05:02:00;;;;;;;;;;;2.50;56.80;;;;;;5074846;28;20354;-85
2022/03/21 05:04:26;;;;;;;;;;;2.20;55.00;;;;;;5074775;28;19957;-86
2022/03/21 05:06:53;;;;;;;;;;;2.30;55.90;;;;;;5074396;28;20382;-86
2022/03/21 05:09:19;;;;;;;;;;;2.50;57.40;;;;;;5074663;28;20003;-86
2022/03/21 05:11:45;;;;;;;;;;;2.60;56.50;;;;;;5074620;28;20388;-86
2022/03/21 05:14:10;;;;;;;;;;;2.70;56.60;;;;;;5074533;28;20366;-86
2022/03/21 05:16:36;;;;;;;;;;;2.70;56.40;;;;;;5073582;28;20017;-86
2022/03/21 05:19:02;;;;;;;;;;;2.80;56.30;;;;;;5074277;28;20313;-86
2022/03/21 05:21:28;;;;;;;;;;;2.80;57.60;;;;;;5074769;28;19955;-86
2022/03/21 05:32:06;;;;;;;;;;;2.70;60.00;;;;;;5054493;28;20329;-85
2022/03/21 05:37:17;;;;;;;;;;;2.00;63.00;;;;;;5064683;28;19965;-85
2022/03/21 05:42:26;;;;;;;;;;;1.70;64.90;;;;;;5074059;28;19916;-85
2022/03/21 05:44:52;;;;;;;;;;;1.80;63.70;;;;;;5074153;28;19912;-86
2022/03/21 05:47:17;;;;;;;;;;;1.80;63.80;;;;;;5073578;28;19913;-86
2022/03/21 05:49:43;;;;;;;;;;;1.90;64.50;;;;;;5073727;28;19920;-86
2022/03/21 05:52:08;;;;;;;;;;;1.80;66.20;;;;;;5071941;28;19916;-85
2022/03/21 05:54:34;;;;;;;;;;;1.60;67.90;;;;;;5072565;28;19926;-86
2022/03/21 05:57:00;;;;;;;;;;;1.70;67.90;;;;;;5072807;28;19966;-86
2022/03/21 06:02:09;;;;;;;;;;;1.80;66.50;;;;;;5070055;28;19926;-86
2022/03/21 06:04:35;;;;;;;;;;;2.00;63.90;;;;;;5072070;28;19942;-86
2022/03/21 06:07:00;;;;;;;;;;;2.20;65.50;;;;;;5071446;28;19912;-86
2022/03/21 06:09:26;;;;;;;;;;;2.40;64.80;;;;;;5077050;28;19965;-86
2022/03/21 06:11:51;;;;;;;;;;;2.50;64.70;;;;;;5075571;28;20398;-86
2022/03/21 06:14:20;;;;;;;;;;;2.60;62.40;;;;;;5070676;28;20420;-86
2022/03/21 06:16:46;;;;;;;;;;;2.70;60.70;;;;;;5069174;28;19919;-86
2022/03/21 06:19:12;;;;;;;;;;;2.80;60.50;;;;;;5071612;28;19912;-86
2022/03/21 06:21:38;;;;;;;;;;;2.70;60.90;;;;;;5070701;28;20285;-86
2022/03/21 06:24:03;;;;;;;;;;;2.60;60.20;;;;;;5077557;28;19999;-86
2022/03/21 06:26:29;;;;;;;;;;;2.40;61.20;;;;;;5072765;28;19912;-85
2022/03/21 06:28:55;;;;;;;;;;;2.30;60.30;;;;;;5071740;28;19951;-86
2022/03/21 06:31:20;;;;;;;;;;;2.50;61.20;;;;;;5071039;28;19920;-86
2022/03/21 06:33:46;;;;;;;;;;;2.60;61.80;;;;;;5071383;28;19924;-85
2022/03/21 06:36:11;;;;;;;;;;;2.80;62.90;;;;;;5103177;28;19912;-86
2022/03/21 06:38:37;;;;;;;;;;;2.80;61.40;;;;;;5079164;28;19912;-86
2022/03/21 06:41:04;;;;;;;;;;;3.00;62.40;;;;;;5071197;28;20358;-86
2022/03/21 06:43:29;;;;;;;;;;;3.00;63.80;;;;;;5072953;28;19912;-86
2022/03/21 06:45:55;;;;;;;;;;;3.20;63.20;;;;;;5080158;28;19975;-86
2022/03/21 06:48:21;;;;;;;;;;;3.40;65.20;;;;;;5073335;28;20278;-86
2022/03/21 06:50:48;;;;;;;;;;;3.50;63.90;;;;;;5072507;28;20424;-86
2022/03/21 06:53:14;;;;;;;;;;;3.60;64.50;;;;;;5070982;28;19920;-86
2022/03/21 06:55:40;;;;;;;;;;;3.80;63.90;;;;;;5072847;28;19932;-86
2022/03/21 06:58:09;;;;;;;;;;;3.90;62.70;;;;;;5072486;28;20012;-86
2022/03/21 07:00:34;;;;;;;;;;;3.90;64.80;;;;;;5071710;28;19966;-86
2022/03/21 07:03:00;;;;;;;;;;;3.90;59.70;;;;;;5072399;28;19912;-86
2022/03/21 07:05:28;;;;;;;;;;;4.00;56.10;;;;;;5072078;28;20389;-86
2022/03/21 07:07:54;;;;;;;;;;;4.10;59.50;;;;;;5070849;28;20542;-86
2022/03/21 07:10:20;;;;;;;;;;;4.30;61.60;;;;;;5071597;28;20019;-86
2022/03/21 07:12:45;;;;;;;;;;;4.40;59.80;;;;;;5070632;28;20012;-86
2022/03/21 07:15:12;;;;;;;;;;;4.60;62.50;;;;;;5071189;28;19916;-86
2022/03/21 07:17:39;;;;;;;;;;;4.70;63.20;;;;;;5069000;28;19959;-86
2022/03/21 07:20:05;;;;;;;;;;;4.90;60.90;;;;;;5071099;28;19965;-86
2022/03/21 07:22:31;;;;;;;;;;;5.10;59.00;;;;;;5073431;28;19913;-86
2022/03/21 07:24:56;;;;;;;;;;;5.30;58.80;;;;;;5071847;28;20363;-86
2022/03/21 07:27:22;;;;;;;;;;;5.60;58.90;;;;;;5069013;28;19916;-86
2022/03/21 07:29:47;;;;;;;;;;;5.80;58.10;;;;;;5070522;28;19912;-86
2022/03/21 07:32:14;;;;;;;;;;;6.20;57.70;;;;;;5070697;28;19920;-86
2022/03/21 07:34:39;;;;;;;;;;;6.50;44.50;;;;;;5074523;28;19916;-86
2022/03/21 07:37:05;;;;;;;;;;;6.90;39.10;;;;;;5067002;28;19924;-86
2022/03/21 07:39:34;;;;;;;;;;;7.20;38.70;;;;;;5071347;28;19934;-86
2022/03/21 07:42:01;;;;;;;;;;;7.40;38.90;;;;;;5077285;28;19947;-86
2022/03/21 07:47:17;;;;;;;;;;;7.80;35.60;;;;;;5072451;28;19930;-86
2022/03/21 07:49:52;;;;;;;;;;;7.90;35.50;;;;;;5077953;28;19917;-86
2022/03/21 07:52:19;;;;;;;;;;;7.90;35.20;;;;;;5074586;28;19919;-86
2022/03/21 07:54:45;;;;;;;;;;;8.00;35.10;;;;;;5107480;27;19960;-86
2022/03/21 07:57:11;;;;;;;;;;;8.00;34.30;;;;;;5074020;28;19912;-87
2022/03/21 07:59:37;;;;;;;;;;;8.10;34.90;;;;;;5077483;28;19939;-86
2022/03/21 08:02:05;;;;;;;;;;;8.30;35.00;;;;;;5075412;28;19922;-87
2022/03/21 08:04:31;;;;;;;;;;;8.50;34.40;;;;;;5077001;28;19934;-87
2022/03/21 08:06:59;;;;;;;;;;;8.70;34.50;;;;;;5078103;28;20342;-86
2022/03/21 08:09:24;;;;;;;;;;;8.90;32.90;;;;;;5071716;28;20403;-86
2022/03/21 08:11:50;;;;;;;;;;;9.10;31.70;;;;;;5076777;28;19916;-87
2022/03/21 08:14:16;;;;;;;;;;;9.10;30.90;;;;;;5078562;28;19942;-87
2022/03/21 08:16:42;;;;;;;;;;;9.20;30.70;;;;;;5075308;28;19946;-86
2022/03/21 08:19:07;;;;;;;;;;;9.20;31.80;;;;;;5076425;28;20382;-86
2022/03/21 08:21:33;;;;;;;;;;;9.20;31.80;;;;;;5081972;28;19916;-86
2022/03/21 08:23:59;;;;;;;;;;;9.20;31.00;;;;;;5087810;28;20278;-87
2022/03/21 08:26:24;;;;;;;;;;;9.30;31.70;;;;;;5078405;28;20428;-86
2022/03/21 08:28:50;;;;;;;;;;;9.10;31.20;;;;;;5084621;28;19912;-86
2022/03/21 08:31:15;;;;;;;;;;;9.10;31.20;;;;;;5074528;28;20362;-87
2022/03/21 08:33:41;;;;;;;;;;;9.20;33.00;;;;;;5079374;28;19967;-87
2022/03/21 08:36:07;;;;;;;;;;;9.40;33.90;;;;;;5081116;28;19913;-87
2022/03/21 08:38:33;;;;;;;;;;;9.50;32.90;;;;;;5074091;28;20071;-87
2022/03/21 08:40:58;;;;;;;;;;;9.60;33.40;;;;;;5055829;28;19995;-87
2022/03/21 08:43:24;;;;;;;;;;;9.70;31.80;;;;;;5074215;28;19912;-87
2022/03/21 08:45:50;;;;;;;;;;;9.80;32.60;;;;;;5074882;28;19912;-87
2022/03/21 08:48:16;;;;;;;;;;;9.90;31.30;;;;;;5072688;28;19912;-87
2022/03/21 08:50:41;;;;;;;;;;;10.10;30.40;;;;;;5072738;28;20524;-87
2022/03/21 08:53:08;;;;;;;;;;;10.30;30.90;;;;;;5072718;28;20377;-87
2022/03/21 08:55:34;;;;;;;;;;;10.20;32.00;;;;;;5071703;28;20416;-86
2022/03/21 08:57:59;;;;;;;;;;;10.10;30.00;;;;;;5072748;28;19912;-86
2022/03/21 09:00:25;;;;;;;;;;;9.90;30.10;;;;;;5073199;28;20388;-86
2022/03/21 09:02:52;;;;;;;;;;;9.90;30.20;;;;;;5072478;28;19920;-87
2022/03/21 09:05:19;;;;;;;;;;;10.00;33.00;;;;;;5073099;28;19920;-87
2022/03/21 09:07:45;;;;;;;;;;;9.90;31.50;;;;;;5075810;28;20247;-87
2022/03/21 09:10:12;;;;;;;;;;;10.00;31.00;;;;;;5072115;28;19919;-87
2022/03/21 09:12:38;;;;;;;;;;;10.10;32.30;;;;;;5072785;28;19912;-87
2022/03/21 09:15:04;;;;;;;;;;;10.30;32.40;;;;;;5072417;28;19917;-87
2022/03/21 09:17:30;;;;;;;;;;;10.30;31.90;;;;;;5072760;28;19970;-87
2022/03/21 09:19:56;;;;;;;;;;;10.40;33.00;;;;;;5070384;28;19939;-87
2022/03/21 09:22:21;;;;;;;;;;;10.60;32.60;;;;;;5072241;28;20011;-87
2022/03/21 09:24:47;;;;;;;;;;;10.70;32.40;;;;;;5072251;28;19923;-86
2022/03/21 09:27:12;;;;;;;;;;;10.90;31.30;;;;;;5074147;28;20266;-86
2022/03/21 09:29:39;;;;;;;;;;;10.90;30.00;;;;;;5076173;28;19924;-86
2022/03/21 09:32:05;;;;;;;;;;;10.80;29.10;;;;;;5080876;28;19921;-87
2022/03/21 09:34:32;;;;;;;;;;;10.70;29.20;;;;;;5072838;28;19967;-87
2022/03/21 09:36:57;;;;;;;;;;;10.70;30.10;;;;;;5071799;28;20389;-87
2022/03/21 09:39:23;;;;;;;;;;;10.80;29.70;;;;;;5071527;28;19916;-87
2022/03/21 09:41:48;;;;;;;;;;;10.80;29.30;;;;;;5077710;28;19912;-87
2022/03/21 09:44:14;;;;;;;;;;;10.90;29.90;;;;;;5074599;28;20003;-88
2022/03/21 09:46:42;;;;;;;;;;;11.00;30.10;;;;;;5081471;28;19919;-87
2022/03/21 09:49:09;;;;;;;;;;;11.10;29.40;;;;;;5075311;28;19913;-87
2022/03/21 09:51:34;;;;;;;;;;;11.20;29.70;;;;;;5070666;28;19912;-87
2022/03/21 09:54:01;;;;;;;;;;;11.20;30.80;;;;;;5073882;28;20282;-87
2022/03/21 09:56:27;;;;;;;;;;;11.40;29.70;;;;;;5072112;28;19919;-87
2022/03/21 09:59:01;;;;;;;;;;;11.50;29.70;;;;;;5071869;28;19921;-87
2022/03/21 10:01:28;;;;;;;;;;;11.50;29.50;;;;;;5081117;28;19919;-87
2022/03/21 10:03:54;;;;;;;;;;;11.30;29.90;;;;;;5072529;28;19916;-87
2022/03/21 10:06:27;;;;;;;;;;;11.40;29.70;;;;;;5073012;28;19912;-86
2022/03/21 10:09:10;;;;;;;;;;;11.40;28.80;;;;;;5083205;28;19920;-87
2022/03/21 10:11:36;;;;;;;;;;;11.40;28.70;;;;;;5072759;28;19935;-86
2022/03/21 10:14:20;;;;;;;;;;;11.60;31.40;;;;;;5070099;28;20378;-87
2022/03/21 10:16:57;;;;;;;;;;;11.70;30.60;;;;;;5070558;28;19956;-87
2022/03/21 10:19:22;;;;;;;;;;;12.00;29.00;;;;;;5078485;28;20011;-87
2022/03/21 10:22:00;;;;;;;;;;;12.20;30.80;;;;;;5074126;28;20014;-87
2022/03/21 10:24:25;;;;;;;;;;;12.50;29.80;;;;;;5075946;28;19966;-87
2022/03/21 10:26:51;;;;;;;;;;;12.70;28.00;;;;;;5072314;28;19913;-87
2022/03/21 10:29:17;;;;;;;;;;;12.90;27.60;;;;;;5075877;28;20294;-87
2022/03/21 10:31:47;;;;;;;;;;;13.10;31.20;;;;;;5072260;28;19913;-87
2022/03/21 10:34:15;;;;;;;;;;;13.20;27.10;;;;;;5075113;28;20427;-87
2022/03/21 10:37:00;;;;;;;;;;;13.10;27.40;;;;;;5071211;28;20003;-87
2022/03/21 10:39:26;;;;;;;;;;;12.90;26.20;;;;;;5074138;28;19991;-87
2022/03/21 10:41:59;;;;;;;;;;;12.80;27.40;;;;;;5069764;28;19930;-87
2022/03/21 10:44:25;;;;;;;;;;;12.80;28.00;;;;;;5070313;28;19919;-87
2022/03/21 10:46:54;;;;;;;;;;;12.90;30.20;;;;;;5074236;28;20360;-87
2022/03/21 10:49:43;;;;;;;;;;;13.10;27.80;;;;;;5073396;28;19913;-87
2022/03/21 10:52:14;;;;;;;;;;;13.10;26.60;;;;;;5084935;28;20237;-87
2022/03/21 10:54:46;;;;;;;;;;;13.10;26.50;;;;;;5099268;22;19924;-87
2022/03/21 10:57:31;;;;;;;;;;;13.20;28.10;;;;;;5110128;28;19912;-87
2022/03/21 11:00:15;;;;;;;;;;;13.40;29.50;;;;;;5117444;28;19920;-87
2022/03/21 11:02:52;;;;;;;;;;;13.70;26.20;;;;;;5107034;28;20012;-87
2022/03/21 11:05:18;;;;;;;;;;;13.70;26.40;;;;;;5110906;28;19973;-87
2022/03/21 11:07:45;;;;;;;;;;;13.70;27.60;;;;;;5105155;28;19922;-87
2022/03/21 11:10:11;;;;;;;;;;;13.70;26.80;;;;;;5104801;28;19923;-87
2022/03/21 11:12:37;;;;;;;;;;;13.80;25.90;;;;;;5100567;28;20312;-87
2022/03/21 11:15:05;;;;;;;;;;;13.80;25.30;;;;;;5113709;28;20289;-87
2022/03/21 11:17:32;;;;;;;;;;;13.90;26.90;;;;;;5111268;28;19919;-87
2022/03/21 11:19:58;;;;;;;;;;;14.00;25.50;;;;;;5097017;28;20023;-87
2022/03/21 11:22:24;;;;;;;;;;;14.30;24.50;;;;;;5097016;28;19995;-87
2022/03/21 11:24:49;;;;;;;;;;;14.50;26.00;;;;;;5095775;28;20406;-87
2022/03/21 11:27:35;;;;;;;;;;;14.70;27.50;;;;;;5094150;28;19920;-87
2022/03/21 11:30:05;;;;;;;;;;;15.00;27.40;;;;;;5076539;28;19912;-87
2022/03/21 11:32:30;;;;;;;;;;;15.40;25.20;;;;;;5076584;28;20010;-87
2022/03/21 11:34:59;;;;;;;;;;;15.60;25.20;;;;;;5076678;28;19912;-87
2022/03/21 11:37:31;;;;;;;;;;;15.90;23.10;;;;;;5079847;28;20385;-87
2022/03/21 11:40:15;;;;;;;;;;;15.90;23.20;;;;;;5096572;28;19953;-87
2022/03/21 11:42:41;;;;;;;;;;;15.80;23.40;;;;;;5096602;28;20365;-87
2022/03/21 11:45:26;;;;;;;;;;;15.70;23.10;;;;;;5096582;28;19915;-87
2022/03/21 11:48:10;;;;;;;;;;;15.60;22.60;;;;;;5094825;28;20476;-87
2022/03/21 11:50:35;;;;;;;;;;;15.70;23.00;;;;;;5096506;28;19946;-87
2022/03/21 11:53:08;;;;;;;;;;;15.80;24.70;;;;;;5096317;28;19970;-87
2022/03/21 11:55:45;;;;;;;;;;;16.30;24.10;;;;;;5096683;28;19928;-87
2022/03/21 11:58:30;;;;;;;;;;;16.60;23.60;;;;;;5086460;28;19967;-87
2022/03/21 12:01:01;;;;;;;;;;;16.90;22.60;;;;;;5075986;28;19909;-87
2022/03/21 12:03:27;;;;;;;;;;;17.30;22.30;;;;;;5075991;28;19916;-88
2022/03/21 12:05:52;;;;;;;;;;;17.40;22.40;;;;;;5075860;28;19908;-87
2022/03/21 12:08:30;;;;;;;;;;;17.70;21.20;;;;;;5085935;28;19945;-87
2022/03/21 12:10:55;;;;;;;;;;;18.00;21.00;;;;;;5095857;28;19915;-87
2022/03/21 12:13:21;;;;;;;;;;;18.30;20.30;;;;;;5095964;28;20378;-87
2022/03/21 12:15:50;;;;;;;;;;;17.90;20.50;;;;;;5096240;28;19908;-87
2022/03/21 12:18:16;;;;;;;;;;;17.80;20.60;;;;;;5085656;28;19912;-87
2022/03/21 12:20:49;;;;;;;;;;;17.30;20.10;;;;;;5074224;28;19930;-87
2022/03/21 12:23:19;;;;;;;;;;;17.20;20.60;;;;;;5074949;28;19958;-87
2022/03/21 12:25:49;;;;;;;;;;;17.30;21.60;;;;;;5075226;28;20003;-87
2022/03/21 12:28:18;;;;;;;;;;;17.70;21.20;;;;;;5075621;28;20005;-87
2022/03/21 12:30:48;;;;;;;;;;;18.20;22.80;;;;;;5108616;28;19994;-87
2022/03/21 12:33:14;;;;;;;;;;;18.90;20.80;;;;;;5111784;28;20018;-87
2022/03/21 12:35:45;;;;;;;;;;;19.90;20.10;;;;;;5093379;28;20015;-88
2022/03/21 12:38:14;;;;;;;;;;;20.90;18.50;;;;;;5095506;28;19919;-88
2022/03/21 12:41:00;;;;;;;;;;;21.80;19.00;;;;;;5112578;28;19920;-88
2022/03/21 12:43:27;;;;;;;;;;;22.60;16.40;;;;;;5085018;28;19912;-88
2022/03/21 12:46:14;;;;;;;;;;;23.40;16.80;;;;;;5100350;28;19998;-88
2022/03/21 12:48:40;;;;;;;;;;;23.00;15.90;;;;;;5092759;28;20396;-88
2022/03/21 12:51:07;;;;;;;;;;;22.40;15.70;;;;;;5106237;27;19920;-88
2022/03/21 12:53:39;;;;;;;;;;;22.00;16.10;;;;;;5094062;28;19912;-88
2022/03/21 12:56:07;;;;;;;;;;;22.10;18.60;;;;;;5094872;28;19916;-88
2022/03/21 12:58:33;;;;;;;;;;;21.90;16.30;;;;;;5084918;28;20006;-88
2022/03/21 13:01:00;;;;;;;;;;;23.00;15.50;;;;;;5093312;28;19995;-88
2022/03/21 13:03:26;;;;;;;;;;;23.70;14.90;;;;;;5096977;28;19912;-88
2022/03/21 13:11:25;;;;;;;;;;;25.30;15.30;;;;;;5089968;28;19997;-88
2022/03/21 13:13:53;;;;;;;;;;;25.90;14.30;;;;;;5086991;28;19924;-89
2022/03/21 13:16:19;;;;;;;;;;;26.30;13.30;;;;;;5090209;28;19919;-89
2022/03/21 13:18:44;;;;;;;;;;;26.70;12.80;;;;;;5093628;28;19927;-89
2022/03/21 13:21:10;;;;;;;;;;;26.60;13.10;;;;;;5083156;28;19921;-88
2022/03/21 13:23:36;;;;;;;;;;;25.30;14.50;;;;;;5097924;28;19916;-88
2022/03/21 13:26:10;;;;;;;;;;;24.30;15.00;;;;;;5100420;28;19912;-88
2022/03/21 13:28:36;;;;;;;;;;;24.10;15.90;;;;;;5087411;28;20010;-88
2022/03/21 13:31:03;;;;;;;;;;;23.60;16.50;;;;;;5089944;28;19998;-88
2022/03/21 13:33:30;;;;;;;;;;;23.50;16.30;;;;;;5084961;28;19919;-88
2022/03/21 13:36:05;;;;;;;;;;;24.70;15.30;;;;;;5096241;28;20366;-89
2022/03/21 13:38:32;;;;;;;;;;;25.80;14.10;;;;;;5084738;28;20315;-89
2022/03/21 13:40:58;;;;;;;;;;;26.20;13.40;;;;;;5090612;28;19912;-89
2022/03/21 13:43:28;;;;;;;;;;;27.30;13.00;;;;;;5079025;28;19924;-89
2022/03/21 13:45:58;;;;;;;;;;;28.20;12.30;;;;;;5093072;28;20362;-89
2022/03/21 13:48:30;;;;;;;;;;;28.40;13.90;;;;;;5090549;28;19922;-89
2022/03/21 13:51:19;;;;;;;;;;;28.70;12.10;;;;;;5086895;28;20361;-89
2022/03/21 13:53:45;;;;;;;;;;;28.70;12.60;;;;;;5088248;28;19920;-89
2022/03/21 13:56:15;;;;;;;;;;;28.80;12.20;;;;;;5084473;28;19940;-89
2022/03/21 13:58:40;;;;;;;;;;;28.60;15.50;;;;;;5097421;28;19913;-89
2022/03/21 14:01:19;;;;;;;;;;;28.20;13.70;;;;;;5086208;28;19912;-88
2022/03/21 14:03:47;;;;;;;;;;;27.80;15.50;;;;;;5083917;28;19913;-88
2022/03/21 14:06:12;;;;;;;;;;;26.90;15.30;;;;;;5086057;28;19944;-88
2022/03/21 14:08:38;;;;;;;;;;;26.60;15.20;;;;;;5086502;28;19973;-88
2022/03/21 14:11:12;;;;;;;;;;;26.00;16.40;;;;;;5097312;28;20364;-88
2022/03/21 14:13:48;;;;;;;;;;;25.80;13.80;;;;;;5084613;28;20173;-89
2022/03/21 14:16:14;;;;;;;;;;;26.70;13.80;;;;;;5089280;28;19915;-88
2022/03/21 14:18:51;;;;;;;;;;;27.70;12.50;;;;;;5090062;27;20030;-89
2022/03/21 14:21:16;;;;;;;;;;;28.50;12.50;;;;;;5096755;28;20006;-88
2022/03/21 14:23:42;;;;;;;;;;;28.30;12.20;;;;;;5091477;28;20003;-89
2022/03/21 14:28:52;;;;;;;;;;;26.60;15.20;;;;;;5099459;28;19966;-88
2022/03/21 14:31:17;;;;;;;;;;;27.30;14.20;;;;;;5095769;28;19920;-89
2022/03/21 14:33:44;;;;;;;;;;;28.50;12.00;;;;;;5105324;28;19919;-89
2022/03/21 14:36:10;;;;;;;;;;;28.80;12.40;;;;;;5092105;28;20331;-89
2022/03/21 14:38:36;;;;;;;;;;;28.00;12.40;;;;;;5096808;28;19912;-89
2022/03/21 14:41:02;;;;;;;;;;;27.40;14.40;;;;;;5094736;28;19920;-89
2022/03/21 14:43:28;;;;;;;;;;;26.60;12.80;;;;;;5101865;28;19919;-88
2022/03/21 14:45:54;;;;;;;;;;;26.40;14.00;;;;;;5089896;28;20292;-88
2022/03/21 14:48:20;;;;;;;;;;;26.00;13.40;;;;;;5105634;28;19918;-88
2022/03/21 14:50:47;;;;;;;;;;;25.70;14.10;;;;;;5105308;28;19911;-88
2022/03/21 14:53:12;;;;;;;;;;;26.00;15.60;;;;;;5097280;28;19912;-88
2022/03/21 14:55:38;;;;;;;;;;;25.70;14.60;;;;;;5098111;28;20289;-88
2022/03/21 14:58:04;;;;;;;;;;;25.60;14.80;;;;;;5090327;28;19969;-89
2022/03/21 15:00:29;;;;;;;;;;;26.50;13.50;;;;;;5097411;28;19934;-88
2022/03/21 15:02:55;;;;;;;;;;;27.40;13.50;;;;;;5100149;28;19950;-88
2022/03/21 15:05:21;;;;;;;;;;;27.10;13.10;;;;;;5098395;28;19912;-88
2022/03/21 15:07:46;;;;;;;;;;;25.50;14.20;;;;;;5103242;28;19981;-89
2022/03/21 15:10:21;;;;;;;;;;;24.50;15.10;;;;;;5101828;28;19908;-89
2022/03/21 15:12:56;;;;;;;;;;;25.80;14.80;;;;;;5100930;28;19924;-89
2022/03/21 15:15:23;;;;;;;;;;;26.60;13.80;;;;;;5097620;28;20393;-89
2022/03/21 15:17:49;;;;;;;;;;;27.10;13.30;;;;;;5094128;28;20058;-89
2022/03/21 15:20:15;;;;;;;;;;;27.70;13.20;;;;;;5085600;28;20433;-89
2022/03/21 15:22:44;;;;;;;;;;;28.50;12.40;;;;;;5078169;28;19916;-89
2022/03/21 15:25:12;;;;;;;;;;;28.40;13.60;;;;;;5094374;28;19909;-89